Time;durP1;ratioP1;P1;durP2;ratioP2;P2;SDS_P1;SDS_P2;PMS_P1;PMS_P2;Temp;Humidity;BMP_temperature;BMP_pressure;BME280_temperature;BME280_humidity;BME280_pressure;Samples;Min_cycle;Max_cycle;Signal;HPM_P1;HPM_P2
2024/01/24 00:01:31;;;;;;;;;;;;;;;15.87;40.52;102000.34;5058459;28;1044;-62
2024/01/24 00:03:57;;;;;;;;;;;;;;;16.87;38.81;102001.09;5057521;28;1209;-62
2024/01/24 00:06:22;;;;;;;;;;;;;;;16.32;39.51;102010.66;5058299;28;981;-62
2024/01/24 00:08:48;;;;;;;;;;;;;;;15.84;40.66;102009.06;5057601;28;1973;-63
2024/01/24 00:11:14;;;;;;;;;;;;;;;16.73;39.01;102006.03;5058184;28;1155;-62
2024/01/24 00:13:39;;;;;;;;;;;;;;;16.82;38.50;102003.72;5057735;28;1036;-62
2024/01/24 00:16:05;;;;;;;;;;;;;;;15.97;40.06;102003.31;5069749;28;1762;-63
2024/01/24 00:18:31;;;;;;;;;;;;;;;16.03;40.42;101996.88;5040026;28;1032;-62
2024/01/24 00:20:57;;;;;;;;;;;;;;;17.71;36.87;101995.91;5057888;28;1055;-62
2024/01/24 00:23:24;;;;;;;;;;;;;;;16.38;39.25;102003.38;5057529;28;1206;-62
2024/01/24 00:25:50;;;;;;;;;;;;;;;16.32;39.74;101999.69;5057957;28;1179;-62
2024/01/24 00:28:16;;;;;;;;;;;;;;;17.19;37.65;101989.56;5057007;28;1898;-62
2024/01/24 00:30:42;;;;;;;;;;;;;;;16.19;39.68;101995.31;5056932;28;1040;-62
2024/01/24 00:33:08;;;;;;;;;;;;;;;15.87;40.40;102000.34;5057774;28;1136;-62
2024/01/24 00:35:34;;;;;;;;;;;;;;;15.56;40.79;102003.16;5039988;28;989;-62
2024/01/24 00:37:59;;;;;;;;;;;;;;;17.16;37.79;101987.31;5057594;28;1000;-62
2024/01/24 00:40:25;;;;;;;;;;;;;;;16.29;39.41;101994.69;5056764;28;1087;-62
2024/01/24 00:42:50;;;;;;;;;;;;;;;15.98;40.38;101993.19;5057507;28;1084;-63
2024/01/24 00:45:16;;;;;;;;;;;;;;;17.71;36.69;101994.03;5057480;28;2492;-63
2024/01/24 00:47:41;;;;;;;;;;;;;;;16.30;39.65;101988.13;5057202;28;1971;-63
2024/01/24 00:50:07;;;;;;;;;;;;;;;15.80;40.66;102000.47;5056786;28;1187;-63
2024/01/24 00:52:33;;;;;;;;;;;;;;;17.18;37.87;102001.69;5057071;28;1164;-63
2024/01/24 00:54:58;;;;;;;;;;;;;;;16.93;38.14;102010.28;5057491;28;1088;-63
2024/01/24 00:57:24;;;;;;;;;;;;;;;16.12;39.97;102005.59;5057265;28;1175;-63
2024/01/24 00:59:49;;;;;;;;;;;;;;;15.83;40.37;102012.88;5056679;28;1096;-63
2024/01/24 01:02:15;;;;;;;;;;;;;;;17.56;37.16;102010.28;5056614;28;1213;-63
2024/01/24 01:04:40;;;;;;;;;;;;;;;16.29;39.58;102011.16;5056872;28;1199;-63
2024/01/24 01:07:05;;;;;;;;;;;;;;;15.89;40.32;102004.53;5056833;28;1222;-62
2024/01/24 01:09:31;;;;;;;;;;;;;;;17.32;37.50;101996.69;5056680;28;1967;-62
2024/01/24 01:11:57;;;;;;;;;;;;;;;16.25;39.64;101993.50;5056174;28;1087;-62
2024/01/24 01:14:22;;;;;;;;;;;;;;;17.43;37.19;101997.69;5056659;28;1773;-62
2024/01/24 01:16:48;;;;;;;;;;;;;;;16.99;37.88;101990.06;5039117;28;1059;-62
2024/01/24 01:19:13;;;;;;;;;;;;;;;16.18;39.54;101979.91;5057043;28;1163;-63
2024/01/24 01:21:40;;;;;;;;;;;;;;;15.90;40.45;101986.97;5056589;28;1020;-63
2024/01/24 01:24:06;;;;;;;;;;;;;;;17.20;37.73;101999.50;5056443;28;1075;-63
2024/01/24 01:26:32;;;;;;;;;;;;;;;16.24;39.54;102019.28;5056872;28;1000;-63
2024/01/24 01:28:58;;;;;;;;;;;;;;;17.65;36.78;102022.50;5056370;28;1909;-62
2024/01/24 01:31:23;;;;;;;;;;;;;;;17.00;37.81;101999.97;5056415;28;1146;-62
2024/01/24 01:33:49;;;;;;;;;;;;;;;16.33;39.18;102000.53;5056490;28;1043;-63
2024/01/24 01:36:14;;;;;;;;;;;;;;;17.41;37.56;102008.09;5055931;28;1027;-61
2024/01/24 01:38:40;;;;;;;;;;;;;;;16.56;38.92;102016.97;5056214;28;1067;-62
2024/01/24 01:41:05;;;;;;;;;;;;;;;15.96;40.22;102017.28;5055867;28;1185;-62
2024/01/24 01:43:31;;;;;;;;;;;;;;;15.72;40.62;102012.59;5056293;28;1059;-63
2024/01/24 01:45:57;;;;;;;;;;;;;;;15.97;40.19;102018.94;5056415;28;2533;-63
2024/01/24 01:48:23;;;;;;;;;;;;;;;17.67;36.75;102014.88;5038364;28;2047;-62
2024/01/24 01:50:48;;;;;;;;;;;;;;;16.44;38.85;102016.16;5038447;28;1188;-62
2024/01/24 01:53:15;;;;;;;;;;;;;;;15.90;40.16;102013.59;5055834;28;1031;-61
2024/01/24 01:55:41;;;;;;;;;;;;;;;17.30;37.45;102020.00;5056143;28;1104;-62
2024/01/24 01:58:06;;;;;;;;;;;;;;;16.32;39.49;102020.81;5038694;28;1061;-62
2024/01/24 02:00:32;;;;;;;;;;;;;;;16.55;39.07;102019.91;5055876;28;1044;-62
2024/01/24 02:02:58;;;;;;;;;;;;;;;17.38;37.10;102006.69;5055493;28;1084;-61
2024/01/24 02:05:23;;;;;;;;;;;;;;;16.41;39.18;102009.22;5055915;28;1112;-62
2024/01/24 02:07:49;;;;;;;;;;;;;;;18.01;35.98;102020.34;5038116;28;1914;-62
2024/01/24 02:10:14;;;;;;;;;;;;;;;17.09;37.53;102014.97;5056121;28;1004;-61
2024/01/24 02:12:40;;;;;;;;;;;;;;;16.35;39.16;102021.16;5055490;28;1028;-62
2024/01/24 02:15:08;;;;;;;;;;;;;;;16.88;38.45;102018.38;5056310;28;2345;-62
2024/01/24 02:17:33;;;;;;;;;;;;;;;16.28;39.39;102025.13;5055742;28;1170;-62
2024/01/24 02:19:59;;;;;;;;;;;;;;;17.40;37.50;102021.03;5055968;28;1187;-61
2024/01/24 02:22:24;;;;;;;;;;;;;;;17.60;36.56;102009.53;5055773;28;1091;-62
2024/01/24 02:24:50;;;;;;;;;;;;;;;16.59;38.71;102021.97;5055898;28;1118;-62
2024/01/24 02:27:15;;;;;;;;;;;;;;;16.15;39.66;102013.31;5055920;28;1024;-62
2024/01/24 02:29:41;;;;;;;;;;;;;;;16.52;39.23;102023.16;5055253;28;1996;-61
2024/01/24 02:32:06;;;;;;;;;;;;;;;17.31;37.24;102019.75;5055679;28;1124;-63
2024/01/24 02:34:31;;;;;;;;;;;;;;;16.26;39.30;102017.13;5055257;28;1044;-62
2024/01/24 02:36:57;;;;;;;;;;;;;;;16.58;39.02;102019.47;5055667;28;1210;-63
2024/01/24 02:39:23;;;;;;;;;;;;;;;16.69;38.59;102029.56;5055842;28;1024;-63
2024/01/24 02:41:48;;;;;;;;;;;;;;;15.95;40.14;102035.66;5055327;28;957;-63
2024/01/24 02:44:14;;;;;;;;;;;;;;;17.57;37.10;102036.69;5055254;28;2488;-63
2024/01/24 02:46:39;;;;;;;;;;;;;;;16.55;38.66;102036.41;5055846;28;1151;-62
2024/01/24 02:49:05;;;;;;;;;;;;;;;16.04;39.60;102042.44;5056079;28;1901;-62
2024/01/24 02:51:30;;;;;;;;;;;;;;;15.70;40.55;102050.38;5055250;28;1051;-62
2024/01/24 02:53:56;;;;;;;;;;;;;;;16.06;39.82;102040.31;5058302;28;1094;-61
2024/01/24 02:56:21;;;;;;;;;;;;;;;17.67;36.77;102030.50;5059407;28;1032;-62
2024/01/24 02:58:47;;;;;;;;;;;;;;;16.29;39.16;102030.38;5059402;28;1076;-61
2024/01/24 03:01:14;;;;;;;;;;;;;;;15.74;40.40;102021.41;5059277;28;994;-63
2024/01/24 03:03:40;;;;;;;;;;;;;;;16.98;37.94;102028.78;5058843;28;1233;-63
2024/01/24 03:06:06;;;;;;;;;;;;;;;16.75;37.98;102031.31;5058912;28;1102;-63
2024/01/24 03:08:51;;;;;;;;;;;;;;;16.01;39.90;102042.91;5058900;28;1901;-63
2024/01/24 03:11:17;;;;;;;;;;;;;;;16.72;38.43;102052.97;5058597;28;1303;-63
2024/01/24 03:13:43;;;;;;;;;;;;;;;16.84;38.07;102047.44;5058767;28;1040;-63
2024/01/24 03:16:09;;;;;;;;;;;;;;;15.96;40.03;102053.75;5058582;28;1762;-60
2024/01/24 03:18:38;;;;;;;;;;;;;;;17.32;37.22;102061.81;5058926;28;921;-61
2024/01/24 03:21:07;;;;;;;;;;;;;;;17.23;37.17;102059.47;5059041;28;1130;-61
2024/01/24 03:23:32;;;;;;;;;;;;;;;16.16;39.38;102066.28;5041076;28;1044;-60
2024/01/24 03:25:58;;;;;;;;;;;;;;;17.18;37.77;102056.66;5058473;28;1000;-61
2024/01/24 03:28:23;;;;;;;;;;;;;;;16.72;38.22;102042.81;5058926;28;1898;-63
2024/01/24 03:30:49;;;;;;;;;;;;;;;16.60;38.84;102056.56;5058628;28;1122;-63
2024/01/24 03:33:14;;;;;;;;;;;;;;;17.75;36.30;102044.72;5058865;28;989;-63
2024/01/24 03:35:40;;;;;;;;;;;;;;;16.45;39.10;102053.50;5058337;28;1041;-63
2024/01/24 03:38:05;;;;;;;;;;;;;;;16.08;39.83;102054.59;5059122;28;1059;-63
2024/01/24 03:40:32;;;;;;;;;;;;;;;17.28;37.54;102053.25;5058292;28;1099;-63
2024/01/24 03:42:58;;;;;;;;;;;;;;;17.06;37.47;102053.13;5058130;28;1390;-63
2024/01/24 03:45:23;;;;;;;;;;;;;;;16.18;39.52;102054.00;5062663;28;1853;-63
2024/01/24 03:47:49;;;;;;;;;;;;;;;15.83;40.13;102067.72;5058457;28;1906;-63
2024/01/24 03:50:14;;;;;;;;;;;;;;;16.81;38.22;102067.97;5071982;28;1063;-63
2024/01/24 03:52:40;;;;;;;;;;;;;;;16.17;39.05;102068.81;5058769;28;1066;-63
2024/01/24 03:55:05;;;;;;;;;;;;;;;16.80;38.38;102070.97;5057765;28;1159;-63
2024/01/24 03:57:31;;;;;;;;;;;;;;;17.48;36.78;102065.69;5058239;28;1024;-63
2024/01/24 03:59:56;;;;;;;;;;;;;;;16.28;38.99;102072.63;5058262;28;1110;-63
2024/01/24 04:02:22;;;;;;;;;;;;;;;17.12;37.60;102065.03;5058207;28;1036;-63
2024/01/24 04:04:47;;;;;;;;;;;;;;;16.73;37.99;102063.72;5057299;28;1059;-63
2024/01/24 04:07:13;;;;;;;;;;;;;;;16.05;39.51;102059.75;5057750;28;830;-62
2024/01/24 04:09:39;;;;;;;;;;;;;;;16.74;38.51;102059.88;5057834;28;1981;-62
2024/01/24 04:12:04;;;;;;;;;;;;;;;18.03;35.72;102056.69;5057904;28;1115;-63
2024/01/24 04:14:30;;;;;;;;;;;;;;;16.63;38.27;102066.22;5060177;28;2235;-62
2024/01/24 04:16:55;;;;;;;;;;;;;;;16.07;39.77;102079.53;5067159;28;1058;-63
2024/01/24 04:19:21;;;;;;;;;;;;;;;17.73;36.20;102068.88;5057573;28;1031;-61
2024/01/24 04:21:46;;;;;;;;;;;;;;;16.52;38.65;102080.81;5057764;28;988;-59
2024/01/24 04:24:12;;;;;;;;;;;;;;;15.97;39.48;102071.91;5057888;28;1091;-61
2024/01/24 04:26:38;;;;;;;;;;;;;;;16.42;38.89;102079.53;5057028;28;1079;-61
2024/01/24 04:29:03;;;;;;;;;;;;;;;16.64;38.42;102080.81;5057671;28;1971;-61
2024/01/24 04:31:29;;;;;;;;;;;;;;;15.95;39.65;102085.03;5057295;28;897;-61
2024/01/24 04:33:55;;;;;;;;;;;;;;;17.55;36.75;102071.88;5057011;28;988;-60
2024/01/24 04:36:20;;;;;;;;;;;;;;;16.37;38.81;102093.16;5057628;28;1107;-61
2024/01/24 04:38:46;;;;;;;;;;;;;;;17.38;36.97;102089.16;5057375;28;1092;-62
2024/01/24 04:41:11;;;;;;;;;;;;;;;17.44;36.77;102082.66;5057709;28;1087;-61
2024/01/24 04:43:37;;;;;;;;;;;;;;;16.40;39.06;102089.91;5056737;28;1087;-59
2024/01/24 04:46:02;;;;;;;;;;;;;;;16.04;39.47;102091.81;5062359;28;2556;-58
2024/01/24 04:48:28;;;;;;;;;;;;;;;17.17;37.41;102081.63;5057415;28;2312;-58
2024/01/24 04:50:53;;;;;;;;;;;;;;;16.22;39.15;102087.31;5057428;28;1115;-61
2024/01/24 04:53:19;;;;;;;;;;;;;;;16.53;38.85;102077.81;5057376;28;992;-62
2024/01/24 04:55:45;;;;;;;;;;;;;;;17.86;36.05;102083.38;5053198;28;1243;-61
2024/01/24 04:58:11;;;;;;;;;;;;;;;16.45;38.77;102080.13;5054614;28;1005;-59
2024/01/24 05:00:37;;;;;;;;;;;;;;;16.11;39.25;102079.91;5044077;28;949;-59
2024/01/24 05:03:02;;;;;;;;;;;;;;;16.95;37.52;102084.22;5056988;28;1198;-63
2024/01/24 05:05:28;;;;;;;;;;;;;;;17.89;35.33;102088.38;5057596;28;1064;-60
2024/01/24 05:07:54;;;;;;;;;;;;;;;16.57;37.84;102100.16;5056358;28;1914;-58
2024/01/24 05:10:20;;;;;;;;;;;;;;;16.76;37.16;102098.94;5057330;28;1028;-60
2024/01/24 05:12:46;;;;;;;;;;;;;;;17.60;35.24;102096.72;5060276;28;1178;-58
2024/01/24 05:15:12;;;;;;;;;;;;;;;16.50;37.16;102110.44;5056419;28;1008;-57
2024/01/24 05:17:38;;;;;;;;;;;;;;;16.12;37.88;102098.88;5063277;28;1329;-57
2024/01/24 05:20:06;;;;;;;;;;;;;;;17.19;35.66;102113.28;5056367;28;947;-55
2024/01/24 05:22:32;;;;;;;;;;;;;;;16.63;36.74;102115.66;5053178;28;1005;-62
2024/01/24 05:24:57;;;;;;;;;;;;;;;16.18;37.51;102108.06;5054410;28;1144;-57
2024/01/24 05:27:23;;;;;;;;;;;;;;;15.78;38.55;102114.19;5049285;28;1059;-58
2024/01/24 05:29:48;;;;;;;;;;;;;;;15.67;38.59;102113.06;5054171;28;1914;-57
2024/01/24 05:32:14;;;;;;;;;;;;;;;15.44;38.98;102106.47;5056542;28;886;-57
2024/01/24 05:34:40;;;;;;;;;;;;;;;15.43;39.31;102106.69;5056461;28;1043;-57
2024/01/24 05:37:05;;;;;;;;;;;;;;;17.01;36.42;102106.06;5056572;28;1090;-57
2024/01/24 05:39:31;;;;;;;;;;;;;;;17.04;35.82;102100.09;5056344;28;1187;-57
2024/01/24 05:41:56;;;;;;;;;;;;;;;16.13;37.74;102097.81;5056354;28;1103;-60
2024/01/24 05:44:22;;;;;;;;;;;;;;;15.72;38.81;102111.34;5056373;28;885;-58
2024/01/24 05:46:47;;;;;;;;;;;;;;;15.43;39.19;102095.72;5056819;28;1075;-58
2024/01/24 05:49:13;;;;;;;;;;;;;;;16.76;36.87;102104.44;5047855;28;1987;-60
2024/01/24 05:51:38;;;;;;;;;;;;;;;17.66;34.99;102087.47;5049836;28;1017;-56
2024/01/24 05:54:04;;;;;;;;;;;;;;;16.56;36.91;102103.97;5056509;28;1178;-58
2024/01/24 05:56:30;;;;;;;;;;;;;;;15.93;38.41;102092.66;5053387;28;1039;-58
2024/01/24 05:58:56;;;;;;;;;;;;;;;15.50;39.35;102093.72;5049687;28;1146;-59
2024/01/24 06:01:21;;;;;;;;;;;;;;;15.89;38.76;102103.28;5055529;28;1349;-60
2024/01/24 06:03:47;;;;;;;;;;;;;;;17.33;35.90;102085.50;5051233;28;1214;-60
2024/01/24 06:06:12;;;;;;;;;;;;;;;17.15;36.18;102084.59;5050574;28;1322;-61
2024/01/24 06:08:38;;;;;;;;;;;;;;;16.20;37.69;102084.81;5056347;28;1905;-59
2024/01/24 06:11:04;;;;;;;;;;;;;;;15.80;38.80;102095.63;5037842;28;1278;-60
2024/01/24 06:13:30;;;;;;;;;;;;;;;15.50;39.17;102101.94;5055994;28;1285;-58
2024/01/24 06:15:56;;;;;;;;;;;;;;;16.70;37.25;102108.13;5053346;28;1368;-57
2024/01/24 06:18:21;;;;;;;;;;;;;;;17.68;34.99;102103.72;5056108;28;1128;-59
2024/01/24 06:20:47;;;;;;;;;;;;;;;16.58;37.25;102110.91;5056173;28;1203;-60
2024/01/24 06:23:12;;;;;;;;;;;;;;;15.99;38.23;102110.06;5038465;28;1068;-61
2024/01/24 06:25:38;;;;;;;;;;;;;;;15.63;39.06;102106.41;5055423;28;1064;-64
2024/01/24 06:28:04;;;;;;;;;;;;;;;15.57;39.23;102110.91;5058745;28;1992;-57
2024/01/24 06:30:29;;;;;;;;;;;;;;;17.08;36.40;102126.00;5045181;28;1082;-57
2024/01/24 06:32:55;;;;;;;;;;;;;;;17.69;35.06;102127.41;5053275;28;1182;-59
2024/01/24 06:35:21;;;;;;;;;;;;;;;16.51;37.18;102134.06;5057884;28;1095;-61
2024/01/24 06:37:47;;;;;;;;;;;;;;;15.90;38.46;102139.75;5058945;28;1282;-61
2024/01/24 06:40:14;;;;;;;;;;;;;;;15.65;39.31;102132.50;5058872;28;1277;-60
2024/01/24 06:42:40;;;;;;;;;;;;;;;16.33;37.85;102127.63;5059535;28;1383;-62
2024/01/24 06:45:06;;;;;;;;;;;;;;;17.53;35.66;102135.38;5057690;28;1055;-59
2024/01/24 06:47:32;;;;;;;;;;;;;;;16.98;36.37;102130.44;5057140;28;1337;-63
2024/01/24 06:49:57;;;;;;;;;;;;;;;16.38;37.79;102119.53;5059932;28;2034;-60
2024/01/24 06:52:23;;;;;;;;;;;;;;;15.92;38.84;102126.63;5059304;28;1095;-58
2024/01/24 06:54:48;;;;;;;;;;;;;;;15.63;39.23;102131.91;5059146;28;1083;-60
2024/01/24 06:57:14;;;;;;;;;;;;;;;16.68;37.34;102136.94;5059782;28;861;-60
2024/01/24 06:59:40;;;;;;;;;;;;;;;17.65;35.29;102127.03;5059544;28;1043;-60
2024/01/24 07:02:06;;;;;;;;;;;;;;;16.55;37.33;102129.75;5053177;28;1376;-56
2024/01/24 07:04:32;;;;;;;;;;;;;;;15.95;38.68;102130.81;5049617;28;1144;-56
2024/01/24 07:06:57;;;;;;;;;;;;;;;15.67;39.11;102124.03;5059915;28;1048;-56
2024/01/24 07:09:23;;;;;;;;;;;;;;;16.43;37.82;102127.84;5058825;28;1967;-59
2024/01/24 07:11:49;;;;;;;;;;;;;;;17.61;35.57;102112.97;5059236;28;1146;-60
2024/01/24 07:14:17;;;;;;;;;;;;;;;17.10;36.23;102121.06;5041525;28;1088;-59
2024/01/24 07:16:44;;;;;;;;;;;;;;;16.20;37.94;102138.84;5059418;28;1001;-60
2024/01/24 07:19:09;;;;;;;;;;;;;;;15.82;39.05;102131.88;5059150;28;1044;-55
2024/01/24 07:21:35;;;;;;;;;;;;;;;15.65;39.45;102129.75;5051158;28;1257;-60
2024/01/24 07:24:00;;;;;;;;;;;;;;;17.21;36.47;102126.78;5043504;28;1375;-59
2024/01/24 07:26:26;;;;;;;;;;;;;;;17.23;36.09;102130.13;5053819;28;1235;-58
2024/01/24 07:28:52;;;;;;;;;;;;;;;16.23;38.05;102141.94;5058465;28;1963;-58
2024/01/24 07:31:17;;;;;;;;;;;;;;;15.87;38.70;102140.25;5041606;28;1128;-57
2024/01/24 07:33:43;;;;;;;;;;;;;;;15.54;39.37;102133.31;5058632;28;1103;-57
2024/01/24 07:36:08;;;;;;;;;;;;;;;16.74;37.34;102134.03;5061712;28;1111;-58
2024/01/24 07:38:34;;;;;;;;;;;;;;;17.77;35.08;102125.06;5057707;28;948;-56
2024/01/24 07:40:59;;;;;;;;;;;;;;;16.70;36.99;102130.09;5051779;28;1084;-57
2024/01/24 07:43:25;;;;;;;;;;;;;;;16.04;38.62;102121.19;5040022;28;1329;-57
2024/01/24 07:45:50;;;;;;;;;;;;;;;15.65;39.18;102105.09;5053414;28;1063;-56
2024/01/24 07:48:16;;;;;;;;;;;;;;;15.48;39.56;102104.09;5057230;28;1972;-57
2024/01/24 07:50:42;;;;;;;;;;;;;;;16.81;37.21;102122.09;5053974;28;1099;-58
2024/01/24 07:53:08;;;;;;;;;;;;;;;17.70;35.15;102118.91;5053551;28;1099;-58
2024/01/24 07:55:34;;;;;;;;;;;;;;;16.53;37.39;102135.50;5051266;28;1666;-57
2024/01/24 07:57:59;;;;;;;;;;;;;;;15.98;38.52;102127.63;5051987;28;1341;-60
2024/01/24 08:00:26;;;;;;;;;;;;;;;15.67;39.23;102126.78;5047516;28;1139;-59
2024/01/24 08:02:51;;;;;;;;;;;;;;;15.70;39.16;102132.66;5055647;28;1163;-60
2024/01/24 08:05:17;;;;;;;;;;;;;;;17.18;36.54;102119.88;5058038;28;976;-61
2024/01/24 08:07:43;;;;;;;;;;;;;;;17.40;35.93;102120.03;5058405;28;1108;-60
2024/01/24 08:10:11;;;;;;;;;;;;;;;16.28;37.80;102122.03;5057643;28;1906;-59
2024/01/24 08:12:38;;;;;;;;;;;;;;;15.88;38.92;102130.94;5058102;28;1111;-62
2024/01/24 08:15:06;;;;;;;;;;;;;;;15.56;39.56;102131.19;5051921;28;1360;-60
2024/01/24 08:17:32;;;;;;;;;;;;;;;17.00;36.69;102120.88;5045086;28;1084;-59
2024/01/24 08:19:58;;;;;;;;;;;;;;;17.23;36.29;102124.63;5046828;28;1116;-59
2024/01/24 08:22:24;;;;;;;;;;;;;;;16.28;37.95;102121.19;5047237;28;1346;-57
2024/01/24 08:24:49;;;;;;;;;;;;;;;15.80;38.83;102123.88;5052242;28;1107;-59
2024/01/24 08:27:15;;;;;;;;;;;;;;;15.56;39.50;102133.94;5057852;28;1169;-61
2024/01/24 08:29:40;;;;;;;;;;;;;;;16.86;37.07;102135.94;5057898;28;1917;-60
2024/01/24 08:32:06;;;;;;;;;;;;;;;17.73;35.38;102129.38;5057701;28;1055;-60
2024/01/24 08:34:32;;;;;;;;;;;;;;;16.61;37.18;102134.31;5055939;28;1106;-60
2024/01/24 08:36:58;;;;;;;;;;;;;;;15.98;38.78;102147.66;5057461;28;1051;-60
2024/01/24 08:39:23;;;;;;;;;;;;;;;16.11;38.47;102134.78;5056099;28;1164;-51
2024/01/24 08:41:49;;;;;;;;;;;;;;;17.53;36.00;102131.78;5057122;28;933;-52
2024/01/24 08:44:15;;;;;;;;;;;;;;;18.23;34.63;102130.53;5056268;28;1071;-51
2024/01/24 08:46:41;;;;;;;;;;;;;;;17.15;36.60;102122.25;5049482;28;1392;-52
2024/01/24 08:49:06;;;;;;;;;;;;;;;16.64;37.87;102117.34;5046811;28;1975;-56
2024/01/24 08:51:32;;;;;;;;;;;;;;;16.14;38.66;102123.34;5041618;28;1305;-54
2024/01/24 08:53:58;;;;;;;;;;;;;;;15.86;39.46;102128.41;5040647;28;1325;-56
2024/01/24 08:56:24;;;;;;;;;;;;;;;15.69;39.79;102128.22;5041787;28;1412;-52
2024/01/24 08:58:50;;;;;;;;;;;;;;;17.14;36.76;102115.09;5057156;28;976;-57
2024/01/24 09:01:16;;;;;;;;;;;;;;;17.29;36.32;102123.63;5057090;28;1177;-59
2024/01/24 09:03:42;;;;;;;;;;;;;;;16.36;38.13;102127.16;5057136;28;1237;-57
2024/01/24 09:06:07;;;;;;;;;;;;;;;15.95;39.24;102131.66;5056221;28;1063;-57
2024/01/24 09:08:33;;;;;;;;;;;;;;;15.70;39.53;102129.09;5056912;28;1960;-58
2024/01/24 09:10:59;;;;;;;;;;;;;;;16.67;37.93;102127.84;5051058;28;1372;-56
2024/01/24 09:13:24;;;;;;;;;;;;;;;17.72;35.74;102129.66;5057214;28;1084;-58
2024/01/24 09:15:50;;;;;;;;;;;;;;;16.75;37.48;102118.41;5049507;28;1228;-57
2024/01/24 09:18:18;;;;;;;;;;;;;;;16.14;38.70;102107.69;5045653;28;1333;-56
2024/01/24 09:20:44;;;;;;;;;;;;;;;15.86;39.39;102100.97;5049297;28;988;-56
2024/01/24 09:23:10;;;;;;;;;;;;;;;16.23;38.58;102105.44;5059127;28;1472;-56
2024/01/24 09:25:35;;;;;;;;;;;;;;;17.57;36.00;102097.19;5055742;28;1067;-56
2024/01/24 09:28:01;;;;;;;;;;;;;;;17.02;37.09;102101.41;5047054;28;1906;-55
2024/01/24 09:30:26;;;;;;;;;;;;;;;16.25;38.67;102097.78;5048785;28;1147;-55
2024/01/24 09:32:52;;;;;;;;;;;;;;;15.90;39.08;102093.13;5052401;28;1070;-56
2024/01/24 09:35:17;;;;;;;;;;;;;;;15.81;39.65;102092.66;5044473;28;1092;-58
2024/01/24 09:37:43;;;;;;;;;;;;;;;17.28;36.46;102089.81;5053336;28;1036;-56
2024/01/24 09:40:09;;;;;;;;;;;;;;;17.22;36.44;102096.31;5064329;28;1140;-56
2024/01/24 09:42:41;;;;;;;;;;;;;;;16.36;38.31;102087.91;5057507;28;1030;-56
2024/01/24 09:45:07;;;;;;;;;;;;;;;15.92;39.02;102080.00;5056124;28;1091;-56
2024/01/24 09:47:32;;;;;;;;;;;;;;;16.28;38.69;102075.34;5056102;28;1028;-56
2024/01/24 09:50:02;;;;;;;;;;;;;;;17.61;35.81;102073.59;5027970;28;1910;-57
2024/01/24 09:52:27;;;;;;;;;;;;;;;16.87;37.23;102066.16;5042736;28;1200;-57
2024/01/24 09:54:53;;;;;;;;;;;;;;;16.20;38.71;102064.75;5055840;28;1289;-57
2024/01/24 09:57:19;;;;;;;;;;;;;;;15.85;39.52;102076.53;5055903;28;1044;-57
2024/01/24 09:59:44;;;;;;;;;;;;;;;16.12;38.76;102060.47;5054202;28;976;-57
2024/01/24 10:02:10;;;;;;;;;;;;;;;17.50;36.12;102052.53;5055279;28;1306;-56
2024/01/24 10:04:37;;;;;;;;;;;;;;;16.95;37.17;102046.59;5038306;28;1080;-57
2024/01/24 10:07:08;;;;;;;;;;;;;;;16.20;38.54;102040.03;5055546;28;1355;-57
2024/01/24 10:09:34;;;;;;;;;;;;;;;15.87;39.47;102041.50;5037994;28;1972;-57
2024/01/24 10:11:59;;;;;;;;;;;;;;;15.78;39.73;102037.38;5055974;28;1384;-57
2024/01/24 10:14:25;;;;;;;;;;;;;;;17.24;36.46;102039.16;5035166;28;1393;-57
2024/01/24 10:16:50;;;;;;;;;;;;;;;17.34;36.13;102037.69;5054491;28;1301;-56
2024/01/24 10:19:18;;;;;;;;;;;;;;;16.43;38.25;102040.00;5055413;28;1313;-57
2024/01/24 10:21:43;;;;;;;;;;;;;;;16.00;38.93;102023.97;5055607;28;1052;-57
2024/01/24 10:24:11;;;;;;;;;;;;;;;15.73;39.43;102019.75;5052513;28;1109;-57
2024/01/24 10:26:36;;;;;;;;;;;;;;;17.06;36.98;102012.72;5042907;28;1013;-59
2024/01/24 10:29:03;;;;;;;;;;;;;;;17.11;36.68;102009.25;5040203;28;1906;-56
2024/01/24 10:31:29;;;;;;;;;;;;;;;16.29;38.22;102024.88;5038435;28;1175;-56
2024/01/24 10:33:57;;;;;;;;;;;;;;;15.87;39.26;102020.38;5055791;28;896;-56
2024/01/24 10:36:23;;;;;;;;;;;;;;;16.28;38.73;102014.16;5049938;28;1075;-56
2024/01/24 10:38:49;;;;;;;;;;;;;;;17.60;36.05;101992.19;5042399;28;1114;-56
2024/01/24 10:41:15;;;;;;;;;;;;;;;16.78;37.21;101986.06;5037952;28;1091;-56
2024/01/24 10:43:42;;;;;;;;;;;;;;;16.12;38.84;101991.00;5046898;28;1119;-56
2024/01/24 10:46:08;;;;;;;;;;;;;;;15.79;39.52;102000.69;5053145;28;1130;-56
2024/01/24 10:48:33;;;;;;;;;;;;;;;16.13;38.98;101987.19;5043629;28;1989;-56
2024/01/24 10:50:59;;;;;;;;;;;;;;;17.48;36.11;101973.03;5055421;28;1035;-56
2024/01/24 10:53:24;;;;;;;;;;;;;;;16.97;37.11;101967.50;5038092;28;1147;-56
2024/01/24 10:55:50;;;;;;;;;;;;;;;16.28;38.58;101965.56;5056159;28;1029;-56
2024/01/24 10:58:16;;;;;;;;;;;;;;;15.84;39.45;101959.69;5037391;28;1234;-56
2024/01/24 11:00:41;;;;;;;;;;;;;;;15.94;39.53;101970.88;5055535;28;1147;-56
2024/01/24 11:03:07;;;;;;;;;;;;;;;17.40;36.62;101966.03;5055567;28;1142;-56
2024/01/24 11:05:39;;;;;;;;;;;;;;;16.86;37.16;101960.13;5038136;28;1052;-56
2024/01/24 11:08:23;;;;;;;;;;;;;;;16.20;38.70;101964.06;5055626;28;1973;-57
2024/01/24 11:10:48;;;;;;;;;;;;;;;15.80;39.31;101959.31;5055047;28;933;-56
2024/01/24 11:13:15;;;;;;;;;;;;;;;16.30;38.74;101955.19;5055807;28;1008;-56
2024/01/24 11:15:41;;;;;;;;;;;;;;;17.55;36.18;101951.69;5041780;28;1499;-57
2024/01/24 11:18:21;;;;;;;;;;;;;;;17.14;36.83;101955.69;5059527;28;1202;-57
2024/01/24 11:20:47;;;;;;;;;;;;;;;16.38;38.10;101954.81;5059607;28;1114;-56
2024/01/24 11:23:31;;;;;;;;;;;;;;;16.03;39.04;101955.72;5059276;28;937;-56
2024/01/24 11:25:57;;;;;;;;;;;;;;;15.69;39.62;101951.91;5059576;28;1144;-56
2024/01/24 11:28:25;;;;;;;;;;;;;;;17.02;37.39;101940.09;5056239;28;1906;-56
2024/01/24 11:30:51;;;;;;;;;;;;;;;17.34;36.40;101928.53;5048587;28;1041;-57
2024/01/24 11:33:18;;;;;;;;;;;;;;;16.35;38.49;101938.81;5054809;28;1060;-58
2024/01/24 11:35:45;;;;;;;;;;;;;;;15.91;39.39;101930.22;5057676;28;1345;-56
2024/01/24 11:38:16;;;;;;;;;;;;;;;16.42;38.48;101923.06;5058586;28;1068;-58
2024/01/24 11:40:45;;;;;;;;;;;;;;;17.73;35.86;101920.31;5058539;28;1413;-58
2024/01/24 11:43:26;;;;;;;;;;;;;;;16.89;37.41;101918.44;5058630;28;1123;-57
2024/01/24 11:45:55;;;;;;;;;;;;;;;16.16;38.89;101918.09;5058309;28;1039;-57
2024/01/24 11:48:21;;;;;;;;;;;;;;;15.87;39.73;101929.84;5058496;28;1898;-57
2024/01/24 11:50:56;;;;;;;;;;;;;;;15.62;40.12;101927.34;5073536;28;1450;-56
2024/01/24 11:53:21;;;;;;;;;;;;;;;17.14;37.17;101912.56;5040750;28;1071;-59
2024/01/24 11:55:50;;;;;;;;;;;;;;;17.47;36.23;101910.84;5052153;28;1313;-58
2024/01/24 11:58:16;;;;;;;;;;;;;;;16.50;38.31;101921.00;5052796;28;1174;-57
2024/01/24 12:00:41;;;;;;;;;;;;;;;16.05;39.03;101912.41;5053719;28;1392;-59
2024/01/24 12:03:07;;;;;;;;;;;;;;;15.78;39.84;101905.75;5040210;28;1256;-60
2024/01/24 12:05:33;;;;;;;;;;;;;;;16.89;37.71;101910.22;5040441;28;1033;-60
2024/01/24 12:07:59;;;;;;;;;;;;;;;17.67;35.84;101888.34;5040141;28;1905;-58
2024/01/24 12:10:25;;;;;;;;;;;;;;;16.63;38.05;101889.66;5053173;28;1231;-59
2024/01/24 12:12:51;;;;;;;;;;;;;;;16.10;38.86;101883.41;5048848;28;1326;-58
2024/01/24 12:15:16;;;;;;;;;;;;;;;15.79;39.78;101874.50;5052142;28;1321;-59
2024/01/24 12:17:42;;;;;;;;;;;;;;;16.29;38.71;101868.44;5055852;28;1278;-58
2024/01/24 12:20:08;;;;;;;;;;;;;;;17.56;36.33;101865.34;5037541;28;1385;-59
2024/01/24 12:22:33;;;;;;;;;;;;;;;16.88;37.31;101859.91;5052197;28;1119;-59
2024/01/24 12:25:02;;;;;;;;;;;;;;;16.29;38.88;101856.63;5056019;28;1547;-59
2024/01/24 12:27:27;;;;;;;;;;;;;;;15.91;39.46;101854.25;5043040;28;1262;-59
2024/01/24 12:29:53;;;;;;;;;;;;;;;16.21;38.87;101847.69;5043039;28;1980;-59
2024/01/24 12:32:21;;;;;;;;;;;;;;;17.59;36.14;101844.75;5057672;28;1120;-58
2024/01/24 12:34:47;;;;;;;;;;;;;;;16.90;37.48;101845.91;5054797;28;1620;-57
2024/01/24 12:37:13;;;;;;;;;;;;;;;16.23;38.68;101839.25;5057882;28;882;-56
2024/01/24 12:39:38;;;;;;;;;;;;;;;15.95;39.44;101845.53;5057738;28;898;-58
2024/01/24 12:42:04;;;;;;;;;;;;;;;16.24;38.84;101844.47;5056309;28;1345;-57